Time;durP1;ratioP1;P1;durP2;ratioP2;P2;SDS_P1;SDS_P2;PMS_P1;PMS_P2;Temp;Humidity;BMP_temperature;BMP_pressure;BME280_temperature;BME280_humidity;BME280_pressure;Samples;Min_cycle;Max_cycle;Signal;HPM_P1;HPM_P2
2022/06/28 00:00:04;;;;;;;13.70;7.10;;;27.30;59.70;;;;;;6159996;28;80586;-75
2022/06/28 00:03:05;;;;;;;12.85;7.45;;;27.30;59.70;;;;;;6160146;28;80976;-75
2022/06/28 00:06:05;;;;;;;15.50;8.13;;;27.30;60.00;;;;;;6160167;28;80181;-76
2022/06/28 00:09:05;;;;;;;17.13;8.02;;;27.20;60.10;;;;;;6160193;28;81215;-75
2022/06/28 00:12:06;;;;;;;13.40;7.13;;;27.00;60.40;;;;;;6158209;28;80270;-75
2022/06/28 00:18:25;;;;;;;9.55;6.75;;;27.10;60.60;;;;;;6152638;28;81091;-75
2022/06/28 00:21:26;;;;;;;12.18;7.40;;;27.10;60.40;;;;;;6159074;28;80442;-74
2022/06/28 00:24:26;;;;;;;11.27;7.55;;;27.20;60.60;;;;;;6159514;28;80249;-74
2022/06/28 00:27:27;;;;;;;10.68;7.18;;;27.20;60.40;;;;;;6158294;28;85425;-75
2022/06/28 00:30:27;;;;;;;11.77;7.47;;;27.20;60.30;;;;;;6159820;28;80707;-75
2022/06/28 00:33:28;;;;;;;12.38;7.00;;;27.20;60.60;;;;;;6136893;28;83208;-74
2022/06/28 00:36:29;;;;;;;12.90;7.78;;;27.20;60.40;;;;;;6158315;28;81652;-75
2022/06/28 00:39:29;;;;;;;14.15;7.10;;;27.10;60.20;;;;;;6159741;28;80434;-75
2022/06/28 00:42:30;;;;;;;12.70;6.53;;;27.20;60.40;;;;;;6159725;28;80369;-74
2022/06/28 00:45:30;;;;;;;8.55;6.03;;;27.20;60.00;;;;;;6149472;28;80450;-74
2022/06/28 00:48:31;;;;;;;10.77;6.68;;;27.20;60.10;;;;;;6159042;28;80949;-74
2022/06/28 00:51:31;;;;;;;10.10;5.80;;;27.20;60.50;;;;;;6157460;28;81866;-76
2022/06/28 00:54:32;;;;;;;11.18;6.28;;;27.20;60.50;;;;;;6155798;28;81135;-76
2022/06/28 00:57:32;;;;;;;8.27;6.20;;;27.30;60.70;;;;;;6155129;28;83039;-76
2022/06/28 01:00:33;;;;;;;8.48;5.57;;;27.20;59.80;;;;;;6146622;28;81515;-76
2022/06/28 01:03:34;;;;;;;10.45;6.20;;;27.20;60.00;;;;;;6157565;28;83316;-76
2022/06/28 01:06:34;;;;;;;6.57;5.20;;;27.20;60.40;;;;;;6159446;28;80517;-76
2022/06/28 01:09:35;;;;;;;8.43;6.03;;;27.20;60.30;;;;;;6156582;28;83174;-76
2022/06/28 01:12:36;;;;;;;8.13;5.80;;;27.20;59.80;;;;;;6153885;28;81432;-76
2022/06/28 01:15:36;;;;;;;6.90;4.80;;;27.20;59.70;;;;;;6156792;28;81674;-76
2022/06/28 01:18:38;;;;;;;9.80;4.97;;;27.20;59.90;;;;;;6152023;28;83093;-75
2022/06/28 01:21:57;;;;;;;8.73;5.93;;;27.20;59.70;;;;;;6147777;28;81525;-76
2022/06/28 01:25:01;;;;;;;12.68;5.82;;;27.10;59.90;;;;;;6157611;28;83388;-76
2022/06/28 01:28:02;;;;;;;7.57;5.97;;;27.10;59.70;;;;;;6157446;28;81612;-76
2022/06/28 01:31:04;;;;;;;14.20;5.90;;;27.20;60.30;;;;;;6155373;28;83503;-76
2022/06/28 01:34:06;;;;;;;8.93;5.57;;;27.20;60.80;;;;;;6158214;28;81518;-75
2022/06/28 01:37:06;;;;;;;6.22;5.18;;;27.20;60.70;;;;;;6162114;28;83505;-76
2022/06/28 01:40:07;;;;;;;9.48;6.47;;;27.20;60.00;;;;;;6161031;28;83310;-74
2022/06/28 01:43:08;;;;;;;11.05;6.20;;;27.10;60.00;;;;;;6141034;28;81383;-75
2022/06/28 01:46:11;;;;;;;7.68;5.45;;;27.10;60.00;;;;;;6161656;28;81509;-75
2022/06/28 01:49:19;;;;;;;7.22;5.40;;;27.10;60.60;;;;;;6163222;28;80427;-75
2022/06/28 01:52:19;;;;;;;7.40;5.07;;;27.20;59.70;;;;;;6161971;28;82881;-75
2022/06/28 01:55:20;;;;;;;11.25;5.43;;;27.10;59.80;;;;;;6161800;28;82747;-75
2022/06/28 01:58:22;;;;;;;7.78;4.95;;;27.10;60.20;;;;;;6159359;28;80730;-74
2022/06/28 02:01:23;;;;;;;8.93;4.75;;;27.10;59.90;;;;;;6161820;28;82624;-77
2022/06/28 02:04:25;;;;;;;9.45;5.63;;;27.10;59.60;;;;;;6159544;28;80704;-76
2022/06/28 02:07:30;;;;;;;;;;;27.10;60.40;;;;;;6162067;28;83168;-75
2022/06/28 02:10:31;;;;;;;7.45;5.70;;;27.10;60.20;;;;;;6184072;28;82846;-74
2022/06/28 02:13:33;;;;;;;8.38;5.43;;;27.10;59.70;;;;;;6161402;28;80786;-74
2022/06/28 02:16:34;;;;;;;9.00;5.10;;;27.10;59.90;;;;;;6161465;28;82802;-74
2022/06/28 02:19:35;;;;;;;5.82;5.22;;;27.10;60.10;;;;;;6160686;28;82635;-74
2022/06/28 02:22:38;;;;;;;6.63;5.25;;;27.10;59.70;;;;;;6158165;28;82628;-74
2022/06/28 02:25:38;;;;;;;7.03;5.65;;;27.10;59.90;;;;;;6172302;28;82742;-75
2022/06/28 02:28:39;;;;;;;9.32;6.00;;;27.00;59.70;;;;;;6160492;28;82033;-75
2022/06/28 02:31:40;;;;;;;8.50;5.60;;;27.00;60.20;;;;;;6156926;28;81733;-75
2022/06/28 02:41:19;;;;;;;9.80;5.63;;;27.00;59.90;;;;;;6159920;28;81965;-76
2022/06/28 02:44:20;;;;;;;12.27;5.72;;;27.00;59.80;;;;;;6161503;28;80647;-77
2022/06/28 02:47:20;;;;;;;8.50;5.68;;;27.00;60.30;;;;;;6152055;28;81484;-75
2022/06/28 02:50:21;;;;;;;8.95;6.40;;;27.00;60.10;;;;;;6158968;28;80659;-74
2022/06/28 02:53:22;;;;;;;10.85;5.90;;;27.00;60.00;;;;;;6159764;28;80665;-74
2022/06/28 02:56:23;;;;;;;10.38;5.85;;;26.90;60.00;;;;;;6161787;28;80498;-74
2022/06/28 02:59:23;;;;;;;8.60;5.43;;;26.90;60.30;;;;;;6146582;28;82485;-74
2022/06/28 03:02:24;;;;;;;9.70;5.65;;;26.80;60.30;;;;;;6152966;28;83253;-74
2022/06/28 03:05:24;;;;;;;12.57;6.60;;;26.70;60.30;;;;;;6165335;28;83389;-74
2022/06/28 03:08:26;;;;;;;9.25;5.60;;;26.70;60.40;;;;;;6159831;28;82919;-74
2022/06/28 03:11:27;;;;;;;10.05;6.20;;;26.80;60.80;;;;;;6159787;28;82572;-73
2022/06/28 03:14:28;;;;;;;12.80;6.18;;;26.80;60.90;;;;;;6161457;28;80321;-73
2022/06/28 03:17:29;;;;;;;12.23;5.40;;;26.70;60.60;;;;;;6161150;28;80449;-74
2022/06/28 03:20:29;;;;;;;10.80;5.70;;;26.70;60.70;;;;;;6159798;28;82446;-74
2022/06/28 03:23:30;;;;;;;10.30;5.57;;;26.70;61.20;;;;;;6161601;28;80581;-74
2022/06/28 03:26:30;;;;;;;7.65;5.32;;;26.70;60.80;;;;;;6158862;28;81394;-75
2022/06/28 03:29:31;;;;;;;7.28;5.80;;;26.70;60.70;;;;;;6159261;28;83373;-75
2022/06/28 03:32:32;;;;;;;10.68;5.53;;;26.80;61.00;;;;;;6158683;28;81099;-75
2022/06/28 03:35:34;;;;;;;7.50;5.47;;;26.80;61.00;;;;;;6159378;28;81581;-76
2022/06/28 03:38:35;;;;;;;6.82;5.30;;;26.80;60.60;;;;;;6158930;28;82646;-77
2022/06/28 03:41:43;;;;;;;10.98;6.03;;;26.80;60.60;;;;;;6154176;28;87056;-75
2022/06/28 03:44:45;;;;;;;10.18;6.38;;;26.80;61.20;;;;;;6159025;28;81501;-75
2022/06/28 03:47:46;;;;;;;11.65;6.10;;;26.80;61.10;;;;;;6156186;28;83109;-76
2022/06/28 03:51:05;;;;;;;9.07;6.22;;;26.80;60.90;;;;;;6145347;28;80418;-74
2022/06/28 03:54:15;;;;;;;11.45;5.90;;;26.80;61.40;;;;;;6157113;28;82585;-79
2022/06/28 03:57:22;;;;;;;10.63;5.65;;;26.70;61.20;;;;;;6152786;28;80746;-72
2022/06/28 04:00:23;;;;;;;9.48;6.47;;;26.70;61.40;;;;;;6164343;28;83053;-72
2022/06/28 04:03:24;;;;;;;13.57;6.28;;;26.70;61.40;;;;;;6158413;28;83622;-73
2022/06/28 04:06:25;;;;;;;10.15;6.68;;;26.70;61.20;;;;;;6155502;28;83271;-71
2022/06/28 04:09:26;;;;;;;14.48;6.68;;;26.70;61.20;;;;;;6156261;28;82562;-71
2022/06/28 04:12:30;;;;;;;20.42;6.55;;;26.70;61.20;;;;;;6153879;28;82349;-72
2022/06/28 04:15:41;;;;;;;10.38;6.43;;;26.80;60.80;;;;;;6158108;28;81347;-72
2022/06/28 04:18:45;;;;;;;17.23;6.32;;;26.80;60.70;;;;;;6150031;28;83492;-73
2022/06/28 04:22:02;;;;;;;10.25;6.50;;;26.90;60.90;;;;;;6147325;28;83546;-73
2022/06/28 04:25:03;;;;;;;11.13;5.65;;;26.90;60.80;;;;;;6157512;28;82001;-72
2022/06/28 04:28:12;;;;;;;11.55;6.55;;;26.90;60.90;;;;;;6157922;28;81566;-75
2022/06/28 04:31:19;;;;;;;12.35;6.25;;;26.90;60.70;;;;;;6158372;28;82590;-73
2022/06/28 04:34:20;;;;;;;11.82;5.95;;;27.00;61.50;;;;;;6157273;28;80621;-73
2022/06/28 04:37:24;;;;;;;13.20;6.28;;;27.00;61.20;;;;;;6157943;28;81405;-74
2022/06/28 04:40:27;;;;;;;10.80;6.43;;;27.00;62.00;;;;;;6158067;28;83342;-73
2022/06/28 04:43:42;;;;;;;14.88;5.88;;;27.00;61.20;;;;;;6156306;28;80557;-72
2022/06/28 04:46:44;;;;;;;12.15;6.93;;;27.10;61.10;;;;;;6136399;28;82879;-72
2022/06/28 04:49:50;;;;;;;9.25;6.53;;;27.10;61.70;;;;;;6164579;28;83524;-72
2022/06/28 04:52:50;;;;;;;17.10;6.50;;;27.10;60.90;;;;;;6157221;28;80438;-72
2022/06/28 04:55:52;;;;;;;9.75;6.40;;;27.10;61.00;;;;;;6157361;28;82467;-70
2022/06/28 04:58:52;;;;;;;10.57;7.00;;;27.20;61.00;;;;;;6156905;28;82410;-75
2022/06/28 05:01:53;;;;;;;12.63;7.15;;;27.20;61.10;;;;;;6155064;28;82938;-70
2022/06/28 05:04:53;;;;;;;13.93;6.80;;;27.20;61.30;;;;;;6156834;28;82076;-73
2022/06/28 05:08:01;;;;;;;12.75;6.68;;;27.20;61.20;;;;;;6146805;28;83028;-73
2022/06/28 05:11:08;;;;;;;18.75;6.07;;;27.20;61.70;;;;;;6159845;28;80612;-71
2022/06/28 05:14:27;;;;;;;11.48;7.03;;;27.20;61.10;;;;;;6156964;28;80372;-73
2022/06/28 05:17:28;;;;;;;11.20;6.28;;;27.30;61.40;;;;;;6156249;28;83278;-72
2022/06/28 05:20:29;;;;;;;9.05;6.88;;;27.30;61.00;;;;;;6157055;28;83317;-73
2022/06/28 05:23:29;;;;;;;14.57;6.88;;;27.40;61.40;;;;;;6154986;28;82932;-72
2022/06/28 05:26:56;;;;;;;10.70;6.30;;;27.30;61.00;;;;;;6140137;28;86182;-75
2022/06/28 05:29:57;;;;;;;8.57;6.18;;;27.30;61.00;;;;;;6152977;28;82967;-73
2022/06/28 05:32:57;;;;;;;17.17;7.28;;;27.30;61.50;;;;;;6156089;28;82928;-72
2022/06/28 05:35:58;;;;;;;12.80;6.18;;;27.40;61.20;;;;;;6153536;28;80344;-73
2022/06/28 05:38:58;;;;;;;14.50;7.13;;;27.30;61.20;;;;;;6148016;28;80630;-72
2022/06/28 05:41:59;;;;;;;12.35;6.80;;;27.40;61.30;;;;;;6148800;28;80554;-71
2022/06/28 05:44:59;;;;;;;16.40;7.47;;;27.40;61.40;;;;;;6147632;28;82318;-73
2022/06/28 05:48:00;;;;;;;13.82;6.55;;;27.40;61.50;;;;;;6146268;28;82097;-73
2022/06/28 05:51:00;;;;;;;20.35;7.60;;;27.40;62.10;;;;;;6150795;28;82184;-73
2022/06/28 05:54:01;;;;;;;10.57;6.57;;;27.40;62.10;;;;;;6149381;28;80430;-71
2022/06/28 05:57:02;;;;;;;15.48;7.68;;;27.40;61.70;;;;;;6150507;28;83511;-72
2022/06/28 06:00:03;;;;;;;11.40;7.00;;;27.40;61.80;;;;;;6152205;28;80372;-71
2022/06/28 06:03:04;;;;;;;31.95;8.15;;;27.40;62.00;;;;;;6151494;28;80642;-72
2022/06/28 06:06:06;;;;;;;21.23;8.43;;;27.40;62.00;;;;;;6156425;28;83183;-72
2022/06/28 06:09:07;;;;;;;12.52;7.40;;;27.40;62.40;;;;;;6155487;28;82041;-72
2022/06/28 06:12:08;;;;;;;23.85;7.95;;;27.40;62.80;;;;;;6154802;28;80853;-71
2022/06/28 06:15:09;;;;;;;11.63;7.53;;;27.50;62.60;;;;;;6152284;28;83041;-71
2022/06/28 06:18:09;;;;;;;13.90;7.18;;;27.50;63.00;;;;;;6156419;28;81529;-71
2022/06/28 06:21:10;;;;;;;14.65;7.05;;;27.50;62.40;;;;;;6158091;28;80720;-71
2022/06/28 06:24:11;;;;;;;16.52;7.10;;;27.50;62.80;;;;;;6160650;28;83227;-72
2022/06/28 06:27:37;;;;;;;13.13;7.85;;;27.50;63.10;;;;;;6149166;28;80560;-72
2022/06/28 06:30:39;;;;;;;14.25;7.38;;;27.50;62.60;;;;;;6159524;28;83439;-72
2022/06/28 06:33:48;;;;;;;15.55;7.82;;;27.50;63.00;;;;;;6145093;28;81595;-72
2022/06/28 06:37:00;;;;;;;16.48;7.82;;;27.50;63.20;;;;;;6160271;28;81673;-73
2022/06/28 06:40:00;;;;;;;17.77;7.30;;;27.60;62.80;;;;;;6160015;28;81410;-72
2022/06/28 06:43:01;;;;;;;12.65;7.20;;;27.60;62.80;;;;;;6161915;28;80506;-72
2022/06/28 06:46:06;;;;;;;17.45;7.43;;;27.60;62.80;;;;;;6157489;28;83633;-72
2022/06/28 06:49:07;;;;;;;19.90;8.27;;;27.60;62.60;;;;;;6159720;28;83119;-72
2022/06/28 06:52:07;;;;;;;15.90;7.68;;;27.60;62.60;;;;;;6159618;28;83376;-72
2022/06/28 06:55:13;;;;;;;13.50;8.07;;;27.60;62.60;;;;;;6144098;28;81911;-72
2022/06/28 06:58:13;;;;;;;15.52;7.30;;;27.60;62.80;;;;;;6160903;28;80651;-72
2022/06/28 07:01:14;;;;;;;17.40;8.23;;;27.60;62.80;;;;;;6159682;28;82033;-71
2022/06/28 07:04:15;;;;;;;10.20;7.22;;;27.60;62.60;;;;;;6159545;28;83112;-71
2022/06/28 07:07:18;;;;;;;16.70;7.90;;;27.60;62.90;;;;;;6159157;28;83598;-71
2022/06/28 07:10:18;;;;;;;18.73;7.35;;;27.60;63.90;;;;;;6158948;28;81314;-71
2022/06/28 07:13:18;;;;;;;11.20;6.85;;;27.60;64.40;;;;;;6159063;28;83373;-71
2022/06/28 07:16:19;;;;;;;13.68;7.47;;;27.60;63.80;;;;;;6158626;28;83583;-71
2022/06/28 07:19:20;;;;;;;10.45;6.97;;;27.60;64.60;;;;;;6158661;28;82776;-70
2022/06/28 07:22:21;;;;;;;14.75;6.43;;;27.70;64.50;;;;;;6158897;28;81729;-72
2022/06/28 07:25:26;;;;;;;15.40;6.40;;;27.70;64.60;;;;;;6159021;28;83195;-72
2022/06/28 07:28:26;;;;;;;13.00;6.90;;;27.70;64.40;;;;;;6157287;28;80469;-69
2022/06/28 07:31:28;;;;;;;12.13;7.70;;;27.60;63.50;;;;;;6150945;28;83248;-72
2022/06/28 07:34:31;;;;;;;16.15;7.45;;;27.30;61.10;;;;;;6158861;28;83070;-73
2022/06/28 07:37:31;;;;;;;13.20;7.07;;;27.00;60.30;;;;;;6159676;28;83372;-70
2022/06/28 07:40:33;;;;;;;14.20;7.28;;;26.70;59.60;;;;;;6159522;28;82476;-71
2022/06/28 07:44:08;;;;;;;15.00;8.05;;;26.30;60.60;;;;;;6156016;28;80363;-70
2022/06/28 07:47:10;;;;;;;11.93;7.25;;;25.90;61.40;;;;;;6148952;28;82979;-69
2022/06/28 07:53:31;;;;;;;19.40;9.13;;;25.90;59.30;;;;;;6156620;28;83009;-69
2022/06/28 07:56:50;;;;;;;17.80;9.23;;;25.90;63.80;;;;;;6158127;28;86350;-70
2022/06/28 07:59:51;;;;;;;21.60;9.00;;;26.20;67.90;;;;;;6150167;28;83206;-69
2022/06/28 08:02:52;;;;;;;29.50;9.98;;;26.50;72.60;;;;;;6151718;28;82297;-69
2022/06/28 08:05:54;;;;;;;13.30;8.68;;;26.70;74.50;;;;;;6155138;28;82708;-69
2022/06/28 08:08:58;;;;;;;15.27;8.93;;;26.70;66.50;;;;;;6158257;28;85178;-69
2022/06/28 08:11:58;;;;;;;12.20;8.45;;;26.60;63.80;;;;;;6158252;28;83716;-69
2022/06/28 08:14:59;;;;;;;14.13;8.20;;;26.50;62.50;;;;;;6158200;28;82590;-68
2022/06/28 08:17:59;;;;;;;15.77;8.00;;;26.40;61.90;;;;;;6154849;28;81154;-69
2022/06/28 08:21:00;;;;;;;16.30;6.93;;;26.30;61.00;;;;;;6158351;28;81496;-69
2022/06/28 08:24:01;;;;;;;11.00;7.78;;;26.20;60.30;;;;;;6158432;28;82614;-70
2022/06/28 08:27:01;;;;;;;12.00;7.32;;;26.20;59.60;;;;;;6155370;28;80438;-69
2022/06/28 08:30:02;;;;;;;12.10;7.20;;;26.10;58.60;;;;;;6157115;28;81694;-69
2022/06/28 08:33:02;;;;;;;13.65;7.50;;;26.00;58.10;;;;;;6170837;28;80508;-69
2022/06/28 08:36:03;;;;;;;10.45;6.32;;;25.90;57.60;;;;;;6158034;28;82909;-69
2022/06/28 08:39:03;;;;;;;9.38;6.50;;;25.90;57.40;;;;;;6158969;28;81739;-70
2022/06/28 08:42:04;;;;;;;14.02;6.75;;;25.90;57.10;;;;;;6159460;28;80121;-68
2022/06/28 08:45:04;;;;;;;8.38;6.68;;;25.80;56.50;;;;;;6159525;28;80756;-69
2022/06/28 08:48:05;;;;;;;9.48;5.78;;;25.80;56.50;;;;;;6158063;28;81810;-70
2022/06/28 08:51:05;;;;;;;9.43;6.40;;;25.80;56.50;;;;;;6159937;28;81508;-78
2022/06/28 08:54:06;;;;;;;12.88;5.82;;;25.80;59.70;;;;;;6154380;28;81188;-72
2022/06/28 08:57:06;;;;;;;9.98;5.75;;;26.10;61.70;;;;;;6151520;28;80448;-73
2022/06/28 09:00:07;;;;;;;12.30;6.78;;;26.40;61.50;;;;;;6149474;28;81899;-73
2022/06/28 09:03:07;;;;;;;12.68;6.20;;;26.50;62.30;;;;;;6150569;28;80669;-72
2022/06/28 09:06:08;;;;;;;9.07;6.57;;;26.70;62.10;;;;;;6151627;28;80622;-70
2022/06/28 09:09:08;;;;;;;11.85;6.35;;;26.90;62.00;;;;;;6152207;28;80688;-70
2022/06/28 09:12:09;;;;;;;15.65;6.45;;;27.00;62.10;;;;;;6152406;28;80436;-71
2022/06/28 09:15:09;;;;;;;10.43;6.07;;;27.10;61.70;;;;;;6153515;28;80697;-70
2022/06/28 09:18:10;;;;;;;11.15;5.82;;;27.20;61.50;;;;;;6146534;28;80646;-71
2022/06/28 09:21:10;;;;;;;10.02;5.72;;;27.40;61.60;;;;;;6158319;28;81203;-72
2022/06/28 09:24:11;;;;;;;8.80;6.03;;;27.50;60.90;;;;;;6158449;28;80580;-70
2022/06/28 09:27:11;;;;;;;12.07;5.90;;;27.60;60.60;;;;;;6153395;28;80621;-71
2022/06/28 09:30:12;;;;;;;8.15;5.35;;;27.60;60.80;;;;;;6155411;28;80374;-70
2022/06/28 09:33:12;;;;;;;10.38;5.88;;;27.60;60.60;;;;;;6152726;28;81572;-72
2022/06/28 09:36:13;;;;;;;15.00;6.30;;;27.70;60.40;;;;;;6155290;28;81132;-71
2022/06/28 09:39:13;;;;;;;11.48;5.53;;;27.80;60.80;;;;;;6155391;28;80816;-70
2022/06/28 09:42:14;;;;;;;6.97;5.60;;;27.80;59.90;;;;;;6158094;28;80414;-71
2022/06/28 09:45:15;;;;;;;7.43;5.38;;;27.80;59.70;;;;;;6158244;28;80506;-72
2022/06/28 09:48:15;;;;;;;14.07;5.80;;;27.90;59.90;;;;;;6158129;28;81944;-71
2022/06/28 09:51:16;;;;;;;7.03;4.95;;;27.90;59.70;;;;;;6153996;28;80390;-70
2022/06/28 09:54:17;;;;;;;7.22;5.32;;;27.90;59.80;;;;;;6161717;28;81271;-72
2022/06/28 09:57:18;;;;;;;8.00;5.07;;;27.90;59.30;;;;;;6166850;28;81387;-69
2022/06/28 10:00:20;;;;;;;11.57;5.70;;;28.00;58.70;;;;;;6168724;28;80614;-70
2022/06/28 10:03:21;;;;;;;7.57;5.28;;;28.00;58.60;;;;;;6174668;28;81275;-70
2022/06/28 10:06:21;;;;;;;25.20;5.40;;;28.10;57.70;;;;;;6156605;28;80899;-72
2022/06/28 10:09:22;;;;;;;7.25;4.90;;;28.10;57.40;;;;;;6163984;28;82006;-69
2022/06/28 10:15:41;;;;;;;9.50;4.32;;;28.00;57.50;;;;;;6157756;28;81251;-72
2022/06/28 10:18:42;;;;;;;6.93;4.68;;;27.70;54.90;;;;;;6156403;28;81976;-71
2022/06/28 10:21:42;;;;;;;7.50;4.72;;;27.40;53.20;;;;;;6159908;28;81420;-70
2022/06/28 10:24:43;;;;;;;11.02;4.40;;;27.10;55.20;;;;;;6167499;28;80845;-73
2022/06/28 10:27:43;;;;;;;10.73;4.03;;;27.20;55.80;;;;;;6165502;28;80740;-71
2022/06/28 10:30:44;;;;;;;9.75;4.95;;;27.40;55.70;;;;;;6160880;28;80634;-73
2022/06/28 10:33:44;;;;;;;6.70;4.15;;;27.50;56.60;;;;;;6166043;28;80443;-73
2022/06/28 10:36:45;;;;;;;16.77;4.30;;;27.50;57.20;;;;;;6162135;28;80655;-71
2022/06/28 10:39:45;;;;;;;12.95;3.72;;;27.50;57.20;;;;;;6164319;28;80455;-72
2022/06/28 10:42:46;;;;;;;9.60;4.25;;;27.60;58.20;;;;;;6162411;28;80131;-71
2022/06/28 10:45:46;;;;;;;6.05;4.50;;;27.60;59.10;;;;;;6170454;28;80664;-71
2022/06/28 10:48:47;;;;;;;6.90;3.58;;;27.60;59.20;;;;;;6156676;28;81465;-67
2022/06/28 10:51:47;;;;;;;7.07;4.38;;;27.60;57.80;;;;;;6159422;28;80370;-67
2022/06/28 10:54:48;;;;;;;12.23;4.93;;;27.50;58.30;;;;;;6159112;28;80318;-67
2022/06/28 10:57:48;;;;;;;11.15;5.13;;;27.50;59.20;;;;;;6154926;28;80416;-67
2022/06/28 11:00:49;;;;;;;7.75;4.28;;;27.50;60.80;;;;;;6155737;28;80315;-67
2022/06/28 11:03:49;;;;;;;6.97;3.63;;;27.50;62.00;;;;;;6161096;28;80467;-67
2022/06/28 11:06:49;;;;;;;6.63;3.63;;;27.40;63.20;;;;;;6161091;28;80884;-67
2022/06/28 11:09:50;;;;;;;9.93;4.40;;;27.30;64.10;;;;;;6161391;28;81365;-67
2022/06/28 11:12:50;;;;;;;5.45;3.63;;;27.30;65.70;;;;;;6165185;28;80589;-66
2022/06/28 11:15:51;;;;;;;4.60;3.45;;;27.20;66.60;;;;;;6162085;28;81417;-66
2022/06/28 11:18:51;;;;;;;10.88;4.00;;;27.10;66.80;;;;;;6161095;28;80241;-67
2022/06/28 11:21:52;;;;;;;6.10;3.78;;;27.00;66.30;;;;;;6160719;28;80318;-67
2022/06/28 11:24:52;;;;;;;9.93;5.40;;;26.90;66.90;;;;;;6157908;28;80728;-67
2022/06/28 11:27:53;;;;;;;6.38;4.43;;;26.80;67.70;;;;;;6153362;28;81874;-67
2022/06/28 11:30:53;;;;;;;6.32;3.45;;;26.70;67.90;;;;;;6161577;28;80484;-67
2022/06/28 11:33:54;;;;;;;7.03;3.78;;;26.70;67.70;;;;;;6151532;28;80225;-67
2022/06/28 11:36:55;;;;;;;5.78;3.42;;;26.70;67.60;;;;;;6159483;28;80619;-67
2022/06/28 11:39:56;;;;;;;7.65;4.25;;;26.70;67.40;;;;;;6159300;28;80052;-67
2022/06/28 11:42:56;;;;;;;8.55;4.95;;;26.70;68.50;;;;;;6152282;28;81020;-66
2022/06/28 11:45:57;;;;;;;10.00;5.35;;;26.70;69.00;;;;;;6161178;28;80234;-66
2022/06/28 11:48:57;;;;;;;7.95;5.00;;;26.80;70.70;;;;;;6160908;28;80574;-66
2022/06/28 11:51:58;;;;;;;15.13;6.72;;;26.80;71.00;;;;;;6161255;28;80353;-67
2022/06/28 11:54:58;;;;;;;9.52;6.15;;;26.80;72.70;;;;;;6161138;28;80448;-67
2022/06/28 11:57:59;;;;;;;10.13;6.75;;;26.70;73.60;;;;;;6161622;28;80628;-66
2022/06/28 12:01:00;;;;;;;12.25;5.88;;;26.80;73.40;;;;;;6152256;28;80495;-67
2022/06/28 12:04:02;;;;;;;13.13;6.75;;;26.80;73.30;;;;;;6156183;28;80654;-67
2022/06/28 12:07:02;;;;;;;15.80;8.98;;;26.80;73.40;;;;;;6163347;28;80564;-67
2022/06/28 12:10:03;;;;;;;16.67;7.88;;;26.90;73.50;;;;;;6162339;28;81137;-67
2022/06/28 12:13:03;;;;;;;9.30;7.30;;;26.90;74.10;;;;;;6160824;28;81060;-66
2022/06/28 12:16:03;;;;;;;11.73;8.15;;;26.90;74.70;;;;;;6156853;28;80156;-67
2022/06/28 12:19:04;;;;;;;12.90;6.57;;;26.90;75.10;;;;;;6156967;28;81616;-67
2022/06/28 12:22:04;;;;;;;11.55;7.28;;;26.90;75.20;;;;;;6157046;28;82380;-67
2022/06/28 12:25:05;;;;;;;19.50;9.48;;;26.90;75.40;;;;;;6156303;28;80279;-67
2022/06/28 12:28:06;;;;;;;15.57;8.82;;;26.90;76.00;;;;;;6157223;28;80559;-67
2022/06/28 12:31:07;;;;;;;13.40;7.97;;;26.90;76.70;;;;;;6155341;28;80862;-67
2022/06/28 12:34:07;;;;;;;12.32;7.65;;;26.80;77.00;;;;;;6157545;28;80489;-67
2022/06/28 12:37:08;;;;;;;16.60;10.23;;;26.80;77.60;;;;;;6153498;28;81078;-67
2022/06/28 12:40:08;;;;;;;20.23;9.00;;;26.80;78.40;;;;;;6147410;28;83684;-67
2022/06/28 12:43:09;;;;;;;13.80;8.45;;;26.80;80.10;;;;;;6146460;28;83430;-67
2022/06/28 12:46:09;;;;;;;10.18;8.23;;;26.70;80.10;;;;;;6151284;28;82139;-67
2022/06/28 12:49:10;;;;;;;16.13;9.55;;;26.70;81.50;;;;;;6143734;28;81378;-67
2022/06/28 12:52:10;;;;;;;11.43;8.82;;;26.70;82.20;;;;;;6152500;28;80516;-66
2022/06/28 12:55:11;;;;;;;14.60;10.52;;;26.70;84.00;;;;;;6147856;28;80501;-67
2022/06/28 12:58:11;;;;;;;14.95;11.50;;;26.70;86.10;;;;;;6149999;28;83003;-67
2022/06/28 13:01:12;;;;;;;21.15;13.02;;;26.70;88.20;;;;;;6151850;28;83331;-66
2022/06/28 13:04:13;;;;;;;18.15;12.23;;;26.60;90.10;;;;;;6146978;28;84335;-66
2022/06/28 13:07:14;;;;;;;21.33;12.95;;;26.60;90.50;;;;;;6155670;28;83163;-72
2022/06/28 13:10:14;;;;;;;19.88;13.13;;;26.60;90.50;;;;;;6156051;28;83166;-71
2022/06/28 13:13:19;;;;;;;20.48;11.63;;;26.30;91.60;;;;;;6156348;28;83137;-71
2022/06/28 13:16:20;;;;;;;18.15;13.10;;;26.30;92.20;;;;;;6156118;28;83576;-71
2022/06/28 13:19:20;;;;;;;20.50;13.38;;;26.20;93.30;;;;;;6156180;28;83027;-71
2022/06/28 13:22:20;;;;;;;18.33;13.57;;;26.10;94.30;;;;;;6154317;28;84103;-71
2022/06/28 13:25:21;;;;;;;19.95;12.57;;;26.00;94.60;;;;;;6156460;28;83521;-72
2022/06/28 13:28:21;;;;;;;19.20;12.63;;;26.00;94.70;;;;;;6156296;28;83308;-72
2022/06/28 13:31:22;;;;;;;21.30;14.77;;;26.00;94.70;;;;;;6158795;28;83178;-72
2022/06/28 13:34:22;;;;;;;17.73;12.77;;;26.00;95.10;;;;;;6160347;28;84085;-72
2022/06/28 13:37:27;;;;;;;16.92;11.23;;;26.30;93.90;;;;;;6160638;28;82985;-72
2022/06/28 13:40:27;;;;;;;19.48;13.20;;;26.40;93.00;;;;;;6160903;28;84760;-74
2022/06/28 13:43:34;;;;;;;23.08;15.00;;;26.50;93.00;;;;;;6160896;28;83344;-73
2022/06/28 13:46:35;;;;;;;17.88;13.80;;;26.50;93.00;;;;;;6158701;28;83129;-73
2022/06/28 13:49:35;;;;;;;22.25;14.35;;;26.60;92.50;;;;;;6160591;28;82990;-73
2022/06/28 13:52:37;;;;;;;19.40;14.73;;;26.60;92.60;;;;;;6158758;28;83367;-74
2022/06/28 13:55:38;;;;;;;20.83;13.82;;;26.60;92.70;;;;;;6159267;28;83372;-76
2022/06/28 13:58:38;;;;;;;16.58;13.60;;;26.70;92.50;;;;;;6160539;28;83537;-76
2022/06/28 14:01:39;;;;;;;22.85;15.73;;;26.80;92.20;;;;;;6165037;28;83007;-73
2022/06/28 14:04:40;;;;;;;16.48;13.27;;;26.80;92.30;;;;;;6160126;28;83186;-74
2022/06/28 14:07:43;;;;;;;18.02;13.00;;;26.90;92.10;;;;;;6159625;28;82882;-71
2022/06/28 14:10:43;;;;;;;24.13;14.02;;;27.00;91.70;;;;;;6160443;28;82963;-72
2022/06/28 14:13:44;;;;;;;19.88;14.48;;;26.90;91.60;;;;;;6159621;28;83718;-70
2022/06/28 14:16:44;;;;;;;16.42;13.13;;;27.00;91.30;;;;;;6159778;28;83589;-70
2022/06/28 14:19:45;;;;;;;19.33;13.05;;;27.00;91.00;;;;;;6159482;28;83243;-73
2022/06/28 14:22:45;;;;;;;17.50;11.82;;;27.10;90.70;;;;;;6159536;28;82937;-71
2022/06/28 14:25:46;;;;;;;19.95;12.98;;;27.00;90.80;;;;;;6159217;28;82993;-71
2022/06/28 14:28:46;;;;;;;15.38;12.05;;;27.00;90.80;;;;;;6158631;28;82977;-72
2022/06/28 14:31:47;;;;;;;17.85;12.32;;;27.00;91.10;;;;;;6158340;28;83615;-71
2022/06/28 14:34:47;;;;;;;12.80;10.10;;;27.00;90.80;;;;;;6158036;28;84228;-71
2022/06/28 14:37:48;;;;;;;19.10;11.23;;;27.20;90.40;;;;;;6158801;28;83562;-71
2022/06/28 14:40:48;;;;;;;11.68;10.20;;;27.20;90.20;;;;;;6158042;28;83004;-70
2022/06/28 14:43:50;;;;;;;13.52;10.13;;;27.20;89.70;;;;;;6157986;28;83220;-72
2022/06/28 14:46:52;;;;;;;11.95;8.95;;;27.10;89.60;;;;;;6155633;28;83395;-72
2022/06/28 14:49:52;;;;;;;12.32;8.88;;;27.20;88.90;;;;;;6160458;28;82120;-71
2022/06/28 14:52:53;;;;;;;10.60;8.07;;;27.30;88.30;;;;;;6161935;28;80482;-74
2022/06/28 14:55:54;;;;;;;9.63;7.50;;;27.40;88.20;;;;;;6161676;28;80656;-71
2022/06/28 14:58:54;;;;;;;10.07;6.72;;;27.40;87.00;;;;;;6160957;28;80567;-73
2022/06/28 15:01:55;;;;;;;8.10;6.30;;;27.40;87.00;;;;;;6161553;28;81584;-70
2022/06/28 15:04:55;;;;;;;27.02;6.45;;;27.50;85.60;;;;;;6162166;28;80468;-72
2022/06/28 15:07:56;;;;;;;9.52;6.88;;;27.50;84.80;;;;;;6161588;28;82120;-71
2022/06/28 15:10:56;;;;;;;8.30;5.32;;;27.40;84.80;;;;;;6161798;28;81259;-73
2022/06/28 15:13:57;;;;;;;7.75;5.38;;;27.50;84.40;;;;;;6161711;28;80264;-72
2022/06/28 15:16:57;;;;;;;5.68;4.85;;;27.50;83.80;;;;;;6161369;28;80221;-73
2022/06/28 15:19:58;;;;;;;8.18;5.05;;;27.60;83.20;;;;;;6161190;28;80235;-70
2022/06/28 15:32:56;;;;;;;6.72;4.53;;;27.50;81.80;;;;;;6160556;28;85563;-71
2022/06/28 15:35:59;;;;;;;9.50;4.07;;;27.50;81.20;;;;;;6161529;28;80043;-73
2022/06/28 15:38:59;;;;;;;8.27;4.55;;;27.60;81.90;;;;;;6161497;28;80603;-72
2022/06/28 15:42:01;;;;;;;10.07;5.03;;;27.60;81.10;;;;;;6161115;28;81837;-71
2022/06/28 15:45:02;;;;;;;6.07;3.65;;;27.60;80.00;;;;;;6160770;28;80260;-68
2022/06/28 15:48:03;;;;;;;5.90;3.92;;;27.60;81.20;;;;;;6160917;28;80879;-72
2022/06/28 15:51:03;;;;;;;4.82;3.80;;;27.60;81.00;;;;;;6161869;28;80721;-69
2022/06/28 15:54:04;;;;;;;6.50;4.57;;;27.60;80.80;;;;;;6159580;28;80164;-72
2022/06/28 15:57:04;;;;;;;6.60;4.40;;;27.70;79.70;;;;;;6161096;28;80868;-73
2022/06/28 16:00:04;;;;;;;7.20;5.05;;;27.70;80.20;;;;;;6159631;28;81386;-71